sensor_id;sensor_type;location;lat;lon;timestamp;pressure;altitude;pressure_sealevel;temperature;humidity
43298;BME280;28892;55.640;37.532;2023-11-22T00:00:54;98640.16;;;-6.15;54.40
43298;BME280;28892;55.640;37.532;2023-11-22T00:03:20;98648.34;;;-6.23;54.33
43298;BME280;28892;55.640;37.532;2023-11-22T00:06:01;98644.28;;;-6.12;54.36
43298;BME280;28892;55.640;37.532;2023-11-22T00:08:27;98646.94;;;-5.99;53.65
43298;BME280;28892;55.640;37.532;2023-11-22T00:10:55;98652.31;;;-6.03;53.55
43298;BME280;28892;55.640;37.532;2023-11-22T00:13:20;98644.66;;;-6.19;54.06
43298;BME280;28892;55.640;37.532;2023-11-22T00:15:49;98641.16;;;-6.03;53.48
43298;BME280;28892;55.640;37.532;2023-11-22T00:18:16;98640.34;;;-6.04;53.67
43298;BME280;28892;55.640;37.532;2023-11-22T00:20:47;98642.53;;;-6.12;53.78
43298;BME280;28892;55.640;37.532;2023-11-22T00:23:17;98634.75;;;-5.97;53.58
43298;BME280;28892;55.640;37.532;2023-11-22T00:25:42;98650.22;;;-6.41;54.41
43298;BME280;28892;55.640;37.532;2023-11-22T00:28:11;98648.41;;;-6.24;54.20
43298;BME280;28892;55.640;37.532;2023-11-22T00:30:37;98648.69;;;-6.14;54.17
43298;BME280;28892;55.640;37.532;2023-11-22T00:33:02;98640.34;;;-6.04;53.75
43298;BME280;28892;55.640;37.532;2023-11-22T00:35:30;98636.72;;;-6.01;53.72
43298;BME280;28892;55.640;37.532;2023-11-22T00:37:55;98634.44;;;-6.06;53.98
43298;BME280;28892;55.640;37.532;2023-11-22T00:40:24;98641.16;;;-6.03;53.69
43298;BME280;28892;55.640;37.532;2023-11-22T00:42:50;98639.09;;;-6.12;53.78
43298;BME280;28892;55.640;37.532;2023-11-22T00:45:16;98634.78;;;-6.12;54.02
43298;BME280;28892;55.640;37.532;2023-11-22T00:47:42;98641.34;;;-6.21;53.90
43298;BME280;28892;55.640;37.532;2023-11-22T00:50:08;98635.69;;;-5.98;53.62
43298;BME280;28892;55.640;37.532;2023-11-22T00:52:46;98635.59;;;-6.26;53.74
43298;BME280;28892;55.640;37.532;2023-11-22T00:55:12;98635.03;;;-6.31;53.92
43298;BME280;28892;55.640;37.532;2023-11-22T00:57:38;98635.50;;;-6.24;53.77
43298;BME280;28892;55.640;37.532;2023-11-22T01:00:04;98631.88;;;-6.36;54.16
43298;BME280;28892;55.640;37.532;2023-11-22T01:02:30;98629.41;;;-6.38;54.36
43298;BME280;28892;55.640;37.532;2023-11-22T01:04:56;98626.84;;;-6.38;53.86
43298;BME280;28892;55.640;37.532;2023-11-22T01:07:22;98634.97;;;-6.15;53.71
43298;BME280;28892;55.640;37.532;2023-11-22T01:09:47;98632.34;;;-6.29;53.85
43298;BME280;28892;55.640;37.532;2023-11-22T01:12:13;98626.03;;;-6.09;53.70
43298;BME280;28892;55.640;37.532;2023-11-22T01:14:47;98632.09;;;-6.25;53.87
43298;BME280;28892;55.640;37.532;2023-11-22T01:17:12;98623.16;;;-6.19;53.79
43298;BME280;28892;55.640;37.532;2023-11-22T01:19:38;98629.09;;;-6.03;53.62
43298;BME280;28892;55.640;37.532;2023-11-22T01:22:04;98623.88;;;-6.32;53.64
43298;BME280;28892;55.640;37.532;2023-11-22T01:24:29;98630.28;;;-6.08;53.57
43298;BME280;28892;55.640;37.532;2023-11-22T01:26:55;98617.59;;;-5.98;53.61
43298;BME280;28892;55.640;37.532;2023-11-22T01:29:21;98619.00;;;-5.93;53.33
43298;BME280;28892;55.640;37.532;2023-11-22T01:31:46;98614.56;;;-5.91;53.33
43298;BME280;28892;55.640;37.532;2023-11-22T01:34:13;98615.75;;;-5.67;52.81
43298;BME280;28892;55.640;37.532;2023-11-22T01:36:41;98606.09;;;-5.78;53.08
43298;BME280;28892;55.640;37.532;2023-11-22T01:39:08;98608.00;;;-5.96;52.91
43298;BME280;28892;55.640;37.532;2023-11-22T01:41:33;98604.91;;;-6.16;53.40
43298;BME280;28892;55.640;37.532;2023-11-22T01:43:59;98609.78;;;-5.97;53.53
43298;BME280;28892;55.640;37.532;2023-11-22T01:46:25;98614.41;;;-5.87;53.46
43298;BME280;28892;55.640;37.532;2023-11-22T01:48:52;98619.19;;;-5.81;53.27
43298;BME280;28892;55.640;37.532;2023-11-22T01:51:22;98619.38;;;-5.84;53.44
43298;BME280;28892;55.640;37.532;2023-11-22T01:53:49;98631.25;;;-5.67;53.18
43298;BME280;28892;55.640;37.532;2023-11-22T01:56:15;98617.97;;;-5.61;53.25
43298;BME280;28892;55.640;37.532;2023-11-22T01:58:43;98618.50;;;-5.41;53.06
43298;BME280;28892;55.640;37.532;2023-11-22T02:01:09;98621.38;;;-5.46;53.06
43298;BME280;28892;55.640;37.532;2023-11-22T02:03:35;98620.44;;;-5.45;53.02
43298;BME280;28892;55.640;37.532;2023-11-22T02:06:01;98615.22;;;-5.72;54.13
43298;BME280;28892;55.640;37.532;2023-11-22T02:08:26;98614.00;;;-5.52;53.57
43298;BME280;28892;55.640;37.532;2023-11-22T02:10:57;98619.63;;;-5.60;53.42
43298;BME280;28892;55.640;37.532;2023-11-22T02:13:23;98619.44;;;-5.57;53.40
43298;BME280;28892;55.640;37.532;2023-11-22T02:15:48;98628.84;;;-5.56;53.63
43298;BME280;28892;55.640;37.532;2023-11-22T02:18:14;98626.38;;;-5.86;54.77
43298;BME280;28892;55.640;37.532;2023-11-22T02:20:40;98624.63;;;-6.00;54.30
43298;BME280;28892;55.640;37.532;2023-11-22T02:23:09;98629.97;;;-5.75;54.33
43298;BME280;28892;55.640;37.532;2023-11-22T02:25:35;98625.53;;;-5.58;53.84
43298;BME280;28892;55.640;37.532;2023-11-22T02:28:01;98625.06;;;-5.50;53.59
43298;BME280;28892;55.640;37.532;2023-11-22T02:30:28;98618.59;;;-5.43;53.52
43298;BME280;28892;55.640;37.532;2023-11-22T02:32:53;98619.25;;;-5.54;53.60
43298;BME280;28892;55.640;37.532;2023-11-22T02:35:19;98624.06;;;-5.62;54.03
43298;BME280;28892;55.640;37.532;2023-11-22T02:37:45;98629.97;;;-5.60;53.87
43298;BME280;28892;55.640;37.532;2023-11-22T02:40:19;98625.34;;;-5.55;53.85
43298;BME280;28892;55.640;37.532;2023-11-22T02:42:48;98623.31;;;-5.64;53.88
43298;BME280;28892;55.640;37.532;2023-11-22T02:45:15;98630.25;;;-5.65;54.04
43298;BME280;28892;55.640;37.532;2023-11-22T02:47:41;98633.75;;;-5.80;54.25
43298;BME280;28892;55.640;37.532;2023-11-22T02:50:09;98620.19;;;-5.69;54.13
43298;BME280;28892;55.640;37.532;2023-11-22T02:52:36;98624.81;;;-5.60;53.75
43298;BME280;28892;55.640;37.532;2023-11-22T02:55:03;98637.50;;;-5.42;53.35
43298;BME280;28892;55.640;37.532;2023-11-22T02:57:30;98636.25;;;-5.79;53.90
43298;BME280;28892;55.640;37.532;2023-11-22T02:59:56;98639.09;;;-5.83;54.15
43298;BME280;28892;55.640;37.532;2023-11-22T03:02:22;98640.59;;;-6.23;54.91
43298;BME280;28892;55.640;37.532;2023-11-22T03:04:47;98636.91;;;-6.04;54.69
43298;BME280;28892;55.640;37.532;2023-11-22T03:07:13;98637.91;;;-5.92;54.74
43298;BME280;28892;55.640;37.532;2023-11-22T03:09:39;98640.22;;;-6.02;54.96
43298;BME280;28892;55.640;37.532;2023-11-22T03:12:06;98635.25;;;-6.05;54.97
43298;BME280;28892;55.640;37.532;2023-11-22T03:14:34;98643.28;;;-5.81;54.31
43298;BME280;28892;55.640;37.532;2023-11-22T03:17:00;98633.31;;;-5.72;54.07
43298;BME280;28892;55.640;37.532;2023-11-22T03:19:26;98638.09;;;-5.81;54.30
43298;BME280;28892;55.640;37.532;2023-11-22T03:21:52;98628.97;;;-5.72;54.26
43298;BME280;28892;55.640;37.532;2023-11-22T03:24:18;98627.13;;;-5.55;53.86
43298;BME280;28892;55.640;37.532;2023-11-22T03:26:43;98637.91;;;-5.49;53.70
43298;BME280;28892;55.640;37.532;2023-11-22T03:29:12;98632.47;;;-5.73;53.82
43298;BME280;28892;55.640;37.532;2023-11-22T03:31:41;98632.94;;;-6.24;55.13
43298;BME280;28892;55.640;37.532;2023-11-22T03:34:07;98640.41;;;-6.20;55.17
43298;BME280;28892;55.640;37.532;2023-11-22T03:36:33;98639.75;;;-6.09;54.96
43298;BME280;28892;55.640;37.532;2023-11-22T03:38:59;98637.72;;;-6.18;55.20
43298;BME280;28892;55.640;37.532;2023-11-22T03:41:24;98639.03;;;-6.11;54.71
43298;BME280;28892;55.640;37.532;2023-11-22T03:43:52;98646.03;;;-5.98;54.31
43298;BME280;28892;55.640;37.532;2023-11-22T03:46:18;98637.09;;;-6.07;54.24
43298;BME280;28892;55.640;37.532;2023-11-22T03:48:44;98639.22;;;-6.14;54.84
43298;BME280;28892;55.640;37.532;2023-11-22T03:51:09;98650.69;;;-6.34;54.83
43298;BME280;28892;55.640;37.532;2023-11-22T03:53:35;98646.75;;;-6.56;55.73
43298;BME280;28892;55.640;37.532;2023-11-22T03:56:01;98656.31;;;-6.42;55.42
43298;BME280;28892;55.640;37.532;2023-11-22T03:58:26;98657.25;;;-6.59;55.65
43298;BME280;28892;55.640;37.532;2023-11-22T04:00:52;98652.84;;;-6.26;54.97
43298;BME280;28892;55.640;37.532;2023-11-22T04:03:18;98654.84;;;-6.32;55.11
43298;BME280;28892;55.640;37.532;2023-11-22T04:05:44;98649.19;;;-5.93;54.24
43298;BME280;28892;55.640;37.532;2023-11-22T04:08:10;98652.56;;;-5.93;53.77
43298;BME280;28892;55.640;37.532;2023-11-22T04:10:36;98651.28;;;-5.85;53.73
43298;BME280;28892;55.640;37.532;2023-11-22T04:13:02;98661.34;;;-5.81;53.59
43298;BME280;28892;55.640;37.532;2023-11-22T04:15:28;98645.00;;;-5.81;53.95
43298;BME280;28892;55.640;37.532;2023-11-22T04:17:55;98658.63;;;-6.37;54.91
43298;BME280;28892;55.640;37.532;2023-11-22T04:20:21;98651.56;;;-6.19;54.70
43298;BME280;28892;55.640;37.532;2023-11-22T04:22:47;98650.84;;;-6.07;54.22
43298;BME280;28892;55.640;37.532;2023-11-22T04:25:14;98648.34;;;-6.23;54.50
43298;BME280;28892;55.640;37.532;2023-11-22T04:27:41;98652.69;;;-6.09;54.23
43298;BME280;28892;55.640;37.532;2023-11-22T04:30:07;98651.66;;;-6.21;54.31
43298;BME280;28892;55.640;37.532;2023-11-22T04:32:40;98655.63;;;-6.00;54.26
43298;BME280;28892;55.640;37.532;2023-11-22T04:35:06;98649.44;;;-5.83;54.02
43298;BME280;28892;55.640;37.532;2023-11-22T04:37:33;98656.81;;;-6.21;54.39
43298;BME280;28892;55.640;37.532;2023-11-22T04:39:59;98666.16;;;-6.49;55.40
43298;BME280;28892;55.640;37.532;2023-11-22T04:42:27;98655.59;;;-6.29;55.30
43298;BME280;28892;55.640;37.532;2023-11-22T04:44:53;98644.91;;;-6.23;54.57
43298;BME280;28892;55.640;37.532;2023-11-22T04:47:19;98648.69;;;-6.14;54.43
43298;BME280;28892;55.640;37.532;2023-11-22T04:49:49;98657.28;;;-6.14;54.57
43298;BME280;28892;55.640;37.532;2023-11-22T04:52:16;98652.41;;;-6.19;54.58
43298;BME280;28892;55.640;37.532;2023-11-22T04:54:42;98659.00;;;-6.29;54.94
43298;BME280;28892;55.640;37.532;2023-11-22T04:57:19;98651.19;;;-6.27;54.99
43298;BME280;28892;55.640;37.532;2023-11-22T04:59:45;98660.91;;;-6.47;55.73
43298;BME280;28892;55.640;37.532;2023-11-22T05:02:11;98655.16;;;-6.22;55.05
43298;BME280;28892;55.640;37.532;2023-11-22T05:04:37;98660.81;;;-6.46;55.52
43298;BME280;28892;55.640;37.532;2023-11-22T05:07:02;98669.88;;;-6.69;55.83
43298;BME280;28892;55.640;37.532;2023-11-22T05:09:28;98675.81;;;-6.52;55.55
43298;BME280;28892;55.640;37.532;2023-11-22T05:11:54;98668.72;;;-6.49;55.39
43298;BME280;28892;55.640;37.532;2023-11-22T05:14:21;98674.50;;;-6.29;54.88
43298;BME280;28892;55.640;37.532;2023-11-22T05:16:46;98674.22;;;-6.39;55.44
43298;BME280;28892;55.640;37.532;2023-11-22T05:19:13;98676.78;;;-6.39;55.44
43298;BME280;28892;55.640;37.532;2023-11-22T05:21:39;98680.06;;;-6.67;55.74
43298;BME280;28892;55.640;37.532;2023-11-22T05:24:04;98686.09;;;-6.67;55.92
43298;BME280;28892;55.640;37.532;2023-11-22T05:26:30;98678.00;;;-6.61;55.45
43298;BME280;28892;55.640;37.532;2023-11-22T05:28:57;98694.31;;;-6.60;55.68
43298;BME280;28892;55.640;37.532;2023-11-22T05:31:23;98694.34;;;-6.46;55.38
43298;BME280;28892;55.640;37.532;2023-11-22T05:33:48;98685.28;;;-6.37;55.03
43298;BME280;28892;55.640;37.532;2023-11-22T05:36:14;98686.19;;;-6.38;55.02
43298;BME280;28892;55.640;37.532;2023-11-22T05:38:42;98684.50;;;-6.08;54.27
43298;BME280;28892;55.640;37.532;2023-11-22T05:41:08;98691.94;;;-6.49;54.94
43298;BME280;28892;55.640;37.532;2023-11-22T05:43:34;98697.03;;;-6.47;55.10
43298;BME280;28892;55.640;37.532;2023-11-22T05:46:02;98702.72;;;-6.56;55.21
43298;BME280;28892;55.640;37.532;2023-11-22T05:48:29;98693.44;;;-6.14;54.30
43298;BME280;28892;55.640;37.532;2023-11-22T05:50:55;98694.00;;;-6.39;54.81
43298;BME280;28892;55.640;37.532;2023-11-22T05:53:21;98694.81;;;-6.23;54.68
43298;BME280;28892;55.640;37.532;2023-11-22T05:55:47;98689.41;;;-6.04;54.56
43298;BME280;28892;55.640;37.532;2023-11-22T05:58:14;98687.53;;;-5.87;54.05
43298;BME280;28892;55.640;37.532;2023-11-22T06:00:43;98690.69;;;-5.82;53.92
43298;BME280;28892;55.640;37.532;2023-11-22T06:03:09;98692.34;;;-6.10;54.08
43298;BME280;28892;55.640;37.532;2023-11-22T06:05:38;98697.88;;;-5.87;53.73
43298;BME280;28892;55.640;37.532;2023-11-22T06:08:04;98689.59;;;-5.63;53.16
43298;BME280;28892;55.640;37.532;2023-11-22T06:10:30;98694.75;;;-5.78;53.08
43298;BME280;28892;55.640;37.532;2023-11-22T06:12:56;98695.94;;;-5.83;53.27
43298;BME280;28892;55.640;37.532;2023-11-22T06:15:22;98690.78;;;-5.98;53.42
43298;BME280;28892;55.640;37.532;2023-11-22T06:17:49;98692.97;;;-6.21;53.93
43298;BME280;28892;55.640;37.532;2023-11-22T06:20:15;98696.47;;;-5.93;53.67
43298;BME280;28892;55.640;37.532;2023-11-22T06:22:41;98696.88;;;-6.29;53.69
43298;BME280;28892;55.640;37.532;2023-11-22T06:25:11;98690.84;;;-6.28;54.24
43298;BME280;28892;55.640;37.532;2023-11-22T06:27:38;98688.25;;;-5.99;54.20
43298;BME280;28892;55.640;37.532;2023-11-22T06:30:04;98690.16;;;-5.72;53.45
43298;BME280;28892;55.640;37.532;2023-11-22T06:32:34;98697.44;;;-5.79;53.06
43298;BME280;28892;55.640;37.532;2023-11-22T06:35:00;98690.50;;;-5.79;53.02
43298;BME280;28892;55.640;37.532;2023-11-22T06:37:28;98693.66;;;-5.73;53.01
43298;BME280;28892;55.640;37.532;2023-11-22T06:39:54;98698.50;;;-5.98;52.80
43298;BME280;28892;55.640;37.532;2023-11-22T06:42:19;98699.16;;;-6.09;53.30
43298;BME280;28892;55.640;37.532;2023-11-22T06:44:45;98704.47;;;-6.26;53.46
43298;BME280;28892;55.640;37.532;2023-11-22T06:50:16;98704.00;;;-6.33;53.24
43298;BME280;28892;55.640;37.532;2023-11-22T06:52:42;98712.44;;;-6.15;52.88
43298;BME280;28892;55.640;37.532;2023-11-22T06:55:10;98702.84;;;-5.98;52.97
43298;BME280;28892;55.640;37.532;2023-11-22T06:57:38;98706.53;;;-5.88;52.57
43298;BME280;28892;55.640;37.532;2023-11-22T07:00:07;98710.56;;;-5.68;52.07
43298;BME280;28892;55.640;37.532;2023-11-22T07:02:35;98710.06;;;-5.75;52.22
43298;BME280;28892;55.640;37.532;2023-11-22T07:05:02;98713.56;;;-5.76;51.46
43298;BME280;28892;55.640;37.532;2023-11-22T07:07:36;98722.50;;;-5.96;51.56
43298;BME280;28892;55.640;37.532;2023-11-22T07:10:02;98730.25;;;-5.96;51.75
43298;BME280;28892;55.640;37.532;2023-11-22T07:12:31;98725.94;;;-5.95;51.71
43298;BME280;28892;55.640;37.532;2023-11-22T07:14:57;98724.63;;;-5.88;51.57
43298;BME280;28892;55.640;37.532;2023-11-22T07:17:23;98745.03;;;-5.83;51.74
43298;BME280;28892;55.640;37.532;2023-11-22T07:19:49;98734.28;;;-6.21;52.34
43298;BME280;28892;55.640;37.532;2023-11-22T07:22:19;98735.88;;;-6.04;52.56
43298;BME280;28892;55.640;37.532;2023-11-22T07:24:48;98744.97;;;-6.12;52.31
43298;BME280;28892;55.640;37.532;2023-11-22T07:27:17;98753.50;;;-6.10;52.33
43298;BME280;28892;55.640;37.532;2023-11-22T07:29:44;98747.59;;;-5.83;52.20
43298;BME280;28892;55.640;37.532;2023-11-22T07:32:11;98748.13;;;-5.62;52.05
43298;BME280;28892;55.640;37.532;2023-11-22T07:34:37;98748.31;;;-5.51;52.09
43298;BME280;28892;55.640;37.532;2023-11-22T07:37:07;98753.91;;;-5.58;51.76
43298;BME280;28892;55.640;37.532;2023-11-22T07:39:34;98754.69;;;-5.87;51.65
43298;BME280;28892;55.640;37.532;2023-11-22T07:42:01;98751.78;;;-5.81;51.92
43298;BME280;28892;55.640;37.532;2023-11-22T07:44:27;98749.16;;;-6.10;51.16
43298;BME280;28892;55.640;37.532;2023-11-22T07:46:53;98746.72;;;-6.27;51.26
43298;BME280;28892;55.640;37.532;2023-11-22T07:49:19;98753.38;;;-6.39;51.99
43298;BME280;28892;55.640;37.532;2023-11-22T07:51:47;98751.66;;;-6.08;52.03
43298;BME280;28892;55.640;37.532;2023-11-22T07:54:13;98746.75;;;-5.98;51.33
43298;BME280;28892;55.640;37.532;2023-11-22T07:56:41;98738.66;;;-5.92;50.76
43298;BME280;28892;55.640;37.532;2023-11-22T07:59:09;98729.72;;;-5.86;50.44
43298;BME280;28892;55.640;37.532;2023-11-22T08:01:36;98736.47;;;-5.11;50.64
43298;BME280;28892;55.640;37.532;2023-11-22T08:04:03;98734.88;;;-2.87;48.33
43298;BME280;28892;55.640;37.532;2023-11-22T08:06:33;98723.41;;;0.35;44.99
43298;BME280;28892;55.640;37.532;2023-11-22T08:09:00;98720.66;;;3.04;42.12
43298;BME280;28892;55.640;37.532;2023-11-22T08:11:30;98717.28;;;4.21;37.04
43298;BME280;28892;55.640;37.532;2023-11-22T08:13:57;98734.34;;;3.44;37.62
43298;BME280;28892;55.640;37.532;2023-11-22T08:16:27;98736.09;;;3.25;35.77
43298;BME280;28892;55.640;37.532;2023-11-22T08:18:53;98723.66;;;4.18;33.57
43298;BME280;28892;55.640;37.532;2023-11-22T08:21:23;98726.28;;;5.73;36.35
43298;BME280;28892;55.640;37.532;2023-11-22T08:23:49;98726.16;;;5.92;32.69
43298;BME280;28892;55.640;37.532;2023-11-22T08:26:15;98728.03;;;4.09;34.88
43298;BME280;28892;55.640;37.532;2023-11-22T08:28:41;98721.69;;;3.75;33.05
43298;BME280;28892;55.640;37.532;2023-11-22T08:31:07;98724.75;;;3.34;36.24
43298;BME280;28892;55.640;37.532;2023-11-22T08:33:39;98731.81;;;1.91;34.34
43298;BME280;28892;55.640;37.532;2023-11-22T08:36:06;98717.25;;;2.46;35.24
43298;BME280;28892;55.640;37.532;2023-11-22T08:38:33;98717.88;;;3.52;35.94
43298;BME280;28892;55.640;37.532;2023-11-22T08:41:05;98722.66;;;3.10;36.21
43298;BME280;28892;55.640;37.532;2023-11-22T08:43:32;98712.69;;;3.78;36.65
43298;BME280;28892;55.640;37.532;2023-11-22T08:45:58;98717.25;;;4.39;34.18
43298;BME280;28892;55.640;37.532;2023-11-22T08:48:24;98717.66;;;4.87;33.82
43298;BME280;28892;55.640;37.532;2023-11-22T08:50:51;98718.38;;;4.97;33.97
43298;BME280;28892;55.640;37.532;2023-11-22T08:53:19;98719.59;;;5.11;33.96
43298;BME280;28892;55.640;37.532;2023-11-22T08:55:46;98716.00;;;5.21;33.59
43298;BME280;28892;55.640;37.532;2023-11-22T08:58:12;98719.47;;;4.86;33.48
43298;BME280;28892;55.640;37.532;2023-11-22T09:00:39;98717.59;;;4.44;32.79
43298;BME280;28892;55.640;37.532;2023-11-22T09:03:07;98728.84;;;4.10;32.79
43298;BME280;28892;55.640;37.532;2023-11-22T09:05:34;98720.09;;;4.01;34.64
43298;BME280;28892;55.640;37.532;2023-11-22T09:07:59;98726.34;;;3.17;36.38
43298;BME280;28892;55.640;37.532;2023-11-22T09:10:26;98722.56;;;2.16;36.73
43298;BME280;28892;55.640;37.532;2023-11-22T09:12:52;98722.31;;;1.60;37.88
43298;BME280;28892;55.640;37.532;2023-11-22T09:15:18;98727.38;;;0.81;38.74
43298;BME280;28892;55.640;37.532;2023-11-22T09:17:54;98728.66;;;0.13;39.75
43298;BME280;28892;55.640;37.532;2023-11-22T09:20:20;98727.09;;;0.32;39.94
43298;BME280;28892;55.640;37.532;2023-11-22T09:22:53;98733.09;;;-0.20;40.22
43298;BME280;28892;55.640;37.532;2023-11-22T09:25:21;98729.50;;;-0.95;40.93
43298;BME280;28892;55.640;37.532;2023-11-22T09:27:49;98736.94;;;-0.91;41.88
43298;BME280;28892;55.640;37.532;2023-11-22T09:30:21;98729.97;;;-0.46;41.01
43298;BME280;28892;55.640;37.532;2023-11-22T09:33:09;98721.72;;;0.24;40.64
43298;BME280;28892;55.640;37.532;2023-11-22T09:35:36;98728.88;;;0.10;39.54
43298;BME280;28892;55.640;37.532;2023-11-22T09:38:02;98731.88;;;0.27;40.29
43298;BME280;28892;55.640;37.532;2023-11-22T09:40:29;98735.06;;;0.83;40.07
43298;BME280;28892;55.640;37.532;2023-11-22T09:42:58;98721.22;;;1.63;38.41
43298;BME280;28892;55.640;37.532;2023-11-22T09:45:23;98718.31;;;1.66;36.21
43298;BME280;28892;55.640;37.532;2023-11-22T09:47:51;98731.38;;;1.76;37.87
43298;BME280;28892;55.640;37.532;2023-11-22T09:50:21;98731.13;;;1.69;37.53
43298;BME280;28892;55.640;37.532;2023-11-22T09:52:50;98729.34;;;1.70;38.32
43298;BME280;28892;55.640;37.532;2023-11-22T09:55:22;98719.31;;;1.85;37.93
43298;BME280;28892;55.640;37.532;2023-11-22T09:57:53;98724.22;;;1.48;36.28
43298;BME280;28892;55.640;37.532;2023-11-22T10:00:19;98723.53;;;1.36;37.26
43298;BME280;28892;55.640;37.532;2023-11-22T10:02:47;98709.19;;;1.11;38.15
43298;BME280;28892;55.640;37.532;2023-11-22T10:05:13;98720.78;;;0.87;38.74
43298;BME280;28892;55.640;37.532;2023-11-22T10:07:39;98720.75;;;-0.18;39.61
43298;BME280;28892;55.640;37.532;2023-11-22T10:10:05;98723.09;;;-1.03;40.77
43298;BME280;28892;55.640;37.532;2023-11-22T10:12:32;98724.84;;;-1.60;41.56
43298;BME280;28892;55.640;37.532;2023-11-22T10:15:14;98725.19;;;-1.65;41.38
43298;BME280;28892;55.640;37.532;2023-11-22T10:17:57;98724.28;;;-2.11;42.05
43298;BME280;28892;55.640;37.532;2023-11-22T10:20:24;98727.19;;;-2.27;42.63
43298;BME280;28892;55.640;37.532;2023-11-22T10:22:51;98720.81;;;-2.23;43.46
43298;BME280;28892;55.640;37.532;2023-11-22T10:25:17;98722.31;;;-2.32;43.15
43298;BME280;28892;55.640;37.532;2023-11-22T10:27:44;98727.19;;;-2.51;43.37
43298;BME280;28892;55.640;37.532;2023-11-22T10:30:10;98734.69;;;-2.35;43.35
43298;BME280;28892;55.640;37.532;2023-11-22T10:32:37;98732.75;;;-2.45;43.65
43298;BME280;28892;55.640;37.532;2023-11-22T10:35:04;98727.94;;;-2.62;44.27
43298;BME280;28892;55.640;37.532;2023-11-22T10:37:29;98728.06;;;-2.40;43.63
43298;BME280;28892;55.640;37.532;2023-11-22T10:39:55;98717.94;;;-2.31;43.63
43298;BME280;28892;55.640;37.532;2023-11-22T10:42:21;98733.00;;;-2.48;43.79
43298;BME280;28892;55.640;37.532;2023-11-22T10:44:48;98731.00;;;-2.69;43.99
43298;BME280;28892;55.640;37.532;2023-11-22T10:47:15;98723.88;;;-3.28;45.43
43298;BME280;28892;55.640;37.532;2023-11-22T10:49:44;98723.75;;;-3.27;45.54
43298;BME280;28892;55.640;37.532;2023-11-22T10:52:11;98721.50;;;-2.81;45.61
43298;BME280;28892;55.640;37.532;2023-11-22T10:54:39;98720.75;;;-2.83;45.43
43298;BME280;28892;55.640;37.532;2023-11-22T10:57:08;98719.72;;;-2.93;45.41
43298;BME280;28892;55.640;37.532;2023-11-22T10:59:34;98725.63;;;-3.42;46.21
43298;BME280;28892;55.640;37.532;2023-11-22T11:02:01;98722.53;;;-3.47;46.38
43298;BME280;28892;55.640;37.532;2023-11-22T11:04:39;98725.06;;;-3.08;46.31
43298;BME280;28892;55.640;37.532;2023-11-22T11:07:09;98723.56;;;-2.86;46.14
43298;BME280;28892;55.640;37.532;2023-11-22T11:09:37;98718.06;;;-2.95;46.09
43298;BME280;28892;55.640;37.532;2023-11-22T11:12:05;98710.25;;;-2.82;46.19
43298;BME280;28892;55.640;37.532;2023-11-22T11:14:31;98722.16;;;-3.16;46.08
43298;BME280;28892;55.640;37.532;2023-11-22T11:16:58;98707.91;;;-3.35;46.60
43298;BME280;28892;55.640;37.532;2023-11-22T11:19:24;98698.81;;;-3.03;46.69
43298;BME280;28892;55.640;37.532;2023-11-22T11:21:50;98708.41;;;-3.30;47.13
43298;BME280;28892;55.640;37.532;2023-11-22T11:24:16;98702.28;;;-3.42;47.65
43298;BME280;28892;55.640;37.532;2023-11-22T11:26:49;98703.28;;;-3.05;47.00
43298;BME280;28892;55.640;37.532;2023-11-22T11:29:32;98699.50;;;-3.01;47.37
43298;BME280;28892;55.640;37.532;2023-11-22T11:31:59;98708.09;;;-3.25;47.66
43298;BME280;28892;55.640;37.532;2023-11-22T11:34:25;98710.81;;;-3.53;49.04
43298;BME280;28892;55.640;37.532;2023-11-22T11:36:54;98707.91;;;-3.35;49.29
43298;BME280;28892;55.640;37.532;2023-11-22T11:39:24;98708.34;;;-3.04;48.26
43298;BME280;28892;55.640;37.532;2023-11-22T11:41:52;98704.22;;;-3.06;47.72
43298;BME280;28892;55.640;37.532;2023-11-22T11:44:20;98699.19;;;-3.34;48.13
43298;BME280;28892;55.640;37.532;2023-11-22T11:46:45;98696.53;;;-3.08;47.99
43298;BME280;28892;55.640;37.532;2023-11-22T11:49:12;98695.38;;;-3.04;48.22
43298;BME280;28892;55.640;37.532;2023-11-22T11:51:39;98697.06;;;-3.03;47.92
43298;BME280;28892;55.640;37.532;2023-11-22T11:54:05;98704.16;;;-3.31;47.89
43298;BME280;28892;55.640;37.532;2023-11-22T11:56:34;98702.50;;;-3.32;48.00
43298;BME280;28892;55.640;37.532;2023-11-22T11:59:01;98701.78;;;-3.99;49.55
43298;BME280;28892;55.640;37.532;2023-11-22T12:01:27;98703.25;;;-3.69;49.06
43298;BME280;28892;55.640;37.532;2023-11-22T12:03:55;98703.31;;;-3.31;48.35
43298;BME280;28892;55.640;37.532;2023-11-22T12:06:21;98709.09;;;-3.15;47.71
43298;BME280;28892;55.640;37.532;2023-11-22T12:08:49;98701.56;;;-3.31;47.76
43298;BME280;28892;55.640;37.532;2023-11-22T12:11:15;98704.25;;;-3.32;47.95
43298;BME280;28892;55.640;37.532;2023-11-22T12:13:43;98714.34;;;-3.67;48.46
43298;BME280;28892;55.640;37.532;2023-11-22T12:16:15;98713.91;;;-3.47;48.13
43298;BME280;28892;55.640;37.532;2023-11-22T12:21:08;98720.34;;;-3.27;47.52
43298;BME280;28892;55.640;37.532;2023-11-22T12:23:38;98722.94;;;-3.53;47.96
43298;BME280;28892;55.640;37.532;2023-11-22T12:26:04;98728.13;;;-3.53;47.18
43298;BME280;28892;55.640;37.532;2023-11-22T12:28:30;98729.78;;;-3.78;47.70
43298;BME280;28892;55.640;37.532;2023-11-22T12:31:11;98732.16;;;-3.75;48.08
43298;BME280;28892;55.640;37.532;2023-11-22T12:33:38;98724.69;;;-3.93;48.43
43298;BME280;28892;55.640;37.532;2023-11-22T12:36:05;98733.47;;;-4.08;48.30
43298;BME280;28892;55.640;37.532;2023-11-22T12:38:32;98732.78;;;-3.97;48.31
43298;BME280;28892;55.640;37.532;2023-11-22T12:40:58;98744.59;;;-3.93;48.17
43298;BME280;28892;55.640;37.532;2023-11-22T12:43:25;98743.75;;;-4.07;48.47
43298;BME280;28892;55.640;37.532;2023-11-22T12:46:00;98735.63;;;-4.15;48.51
43298;BME280;28892;55.640;37.532;2023-11-22T12:48:26;98742.94;;;-4.35;48.83
43298;BME280;28892;55.640;37.532;2023-11-22T12:50:55;98748.00;;;-4.33;48.61
43298;BME280;28892;55.640;37.532;2023-11-22T12:53:21;98752.81;;;-4.14;48.29
43298;BME280;28892;55.640;37.532;2023-11-22T12:55:51;98752.88;;;-4.01;47.51